Nearby METAR Reports

METAR is the scheduled surface weather observation taken hourly at civil and military airport locations.

METAR is an acronym from the French language and roughly translates as Aviation Routine Weather Report.

 

EGPL - Benbecula Island, United Kingdom
Distance from station: WNW 41mi, 66km
Updated: 20/10/2021 08:50
Nearby showers, Partly cloudy
Nearby showers, Partly cloudy
 Wind from WSW
Wind: WSW 24 mph , 39 km/h
Temperature: 11°C
Dew Point: 8°C
Humidity: 82%
Barometer: 989 hPa
Summary: Nearby Showers
Clouds: Partly cloudy
Visibility: 6 miles , 10 km
Cloud details: Few Clouds 183 m
Partly cloudy 549 m
2021/10/20 07:50 EGPL 200750Z 24021KT 9999 VCSH FEW006 SCT018 11/08 Q0989
EGPU - Tiree Island, United Kingdom
Distance from station: SSW 56mi, 90km
Updated: 20/10/2021 08:50
Nearby showers, Mostly cloudy
Nearby showers, Mostly cloudy
 Wind from W
Wind: W 18 mph , 30 km/h
Temperature: 10°C
Wind Chill: 7°C
Dew Point: 4°C
Humidity: 67%
Barometer: 992 hPa
Summary: Nearby Showers
Clouds: Mostly cloudy
Visibility: 6 miles , 10 km
Cloud details: Mostly cloudy 1128 m
2021/10/20 07:50 EGPU 200750Z 26016KT 9999 VCSH BKN037 10/04 Q0992
 
EGEO - Oban Airport, United Kingdom
Distance from station: SE 65mi, 105km
Updated: 20/10/2021 08:50
Clear
Clear
 Wind from WSW
Wind: WSW 23 mph , 37 km/h
Temperature: 11°C
Dew Point: 6°C
Humidity: 72%
Barometer: 993 hPa
Summary: Clear
Visibility: greater than 7 miles , 10 km
2021/10/20 07:50 EGEO 200750Z 25020KT CAVOK 11/06 Q0993
EGPO - Stornoway, United Kingdom
Distance from station: 0 66mi, 106km
Updated: 20/10/2021 08:50
Nearby showers, Mostly cloudy
Nearby showers, Mostly cloudy
 Wind from SW
Wind: SW 18 mph , 30 km/h
Temperature: 10°C
Wind Chill: 7°C
Dew Point: 8°C
Humidity: 88%
Barometer: 987 hPa
Summary: Nearby Showers
Clouds: Mostly cloudy
Visibility: 6 miles , 10 km
Cloud details: Few Clouds 305 m
Partly cloudy 488 m
Mostly cloudy 671 m
2021/10/20 07:50 EGPO 200750Z 23016KT 9999 6000NW VCSH FEW010 SCT016 BKN022 10/08 Q0987
 
EGPE - Inverness/Dalcro, United Kingdom
Distance from station: ENE 88mi, 141km
Updated: 20/10/2021 08:50
Partly cloudy
Partly cloudy
 Wind from SW
Wind: SW 10 mph , 17 km/h
Temperature: 9°C
Wind Chill: 7°C
Dew Point: 7°C
Humidity: 87%
Barometer: 989 hPa
Clouds: Partly cloudy
Visibility: 6 miles , 10 km
Cloud details: Few Clouds 488 m
Partly cloudy 1250 m
2021/10/20 07:50 EGPE 200750Z 23009KT 9999 FEW016 SCT041 09/07 Q0989
EGQA - Tain Range (saws, United Kingdom
Distance from station: ENE 97mi, 156km
Updated: 19/10/2021 12:50
NOT Current
Rain showers, Partly cloudy
Rain showers, Partly cloudy
 Wind from calm
Wind: Calm
Summary: Rain Showers
Clouds: Partly cloudy
Visibility: 3 miles , 5 km
Cloud details: Few Clouds 274 m
Partly cloudy 914 m
2021/10/19 11:50 EGQA 191150Z 00000KT 5000 SHRA FEW009 SCT030 15/// Q0998 RMK BLU
 
EGQK - Kinloss Raf, United Kingdom
Distance from station: ENE 107mi, 171km
Updated: 20/10/2021 07:50
Mostly cloudy
Mostly cloudy
 Wind from varies
Wind: varies 0 mph , 0 km/h
Temperature: 10°C
Dew Point: 7°C
Humidity: 82%
Barometer: 989 hPa
Clouds: Mostly cloudy
Visibility: 6 miles , 10 km
Cloud details: Mostly cloudy 914 m
2021/10/20 06:50 EGQK 200650Z AUTO /////KT 9999 BKN030/// 10/07 Q0989
EGPI - Islay/Port Ellen, United Kingdom
Distance from station: S 110mi, 177km
Updated: 20/10/2021 08:50
Light rain, Partly cloudy
Light rain, Partly cloudy
 Wind from W
Wind: W 20 mph , 31 km/h
Temperature: 11°C
Dew Point: 6°C
Humidity: 72%
Barometer: 994 hPa
Summary: Light rain
Clouds: Partly cloudy
Visibility: 6 miles , 10 km
Cloud details: Few Clouds 1036 m
Partly cloudy 1372 m
2021/10/20 07:50 EGPI 200750Z 27017KT 9999 -RA FEW034 SCT045 11/06 Q0994
 
EGQS - Lossiemouth Raf, United Kingdom
Distance from station: ENE 117mi, 188km
Updated: 20/10/2021 08:50
Few Clouds
Few Clouds
 Wind from WSW
Wind: WSW 21 mph , 33 km/h
Temperature: 10°C
Wind Chill: 6°C
Dew Point: 7°C
Humidity: 82%
Barometer: 988 hPa
Clouds: Few Clouds
Visibility: 6 miles , 10 km
Cloud details: Few Clouds 1067 m
2021/10/20 07:50 EGQS 200750Z 24018KT 9999 FEW035 10/07 Q0988 NOSIG RMK BLU BLU
EGPF - Glasgow Airport, United Kingdom
Distance from station: SE 121mi, 195km
Updated: 20/10/2021 08:50
Mostly cloudy
Mostly cloudy
 Wind from WSW
Wind: WSW 15 mph , 24 km/h
Temperature: 10°C
Wind Chill: 7°C
Dew Point: 7°C
Humidity: 82%
Barometer: 993 hPa
Clouds: Mostly cloudy
Visibility: 6 miles , 10 km
Cloud details: Few Clouds 671 m
Mostly cloudy 823 m
Mostly cloudy 1067 m
2021/10/20 07:50 EGPF 200750Z AUTO 24013KT 9999 FEW022 BKN027 BKN035 10/07 Q0993
 
EGEC - Campbeltown, United Kingdom
Distance from station: SSE 129mi, 207km
Updated: 02/10/2021 09:50
NOT Current
Clear
Clear
 Wind from SSE
Wind: SSE 8 mph , 13 km/h
Temperature: 10°C
Wind Chill: 8°C
Dew Point: 8°C
Humidity: 88%
Barometer: 990 hPa
Summary: Clear
Visibility: greater than 7 miles , 10 km
2021/10/02 08:50 EGEC 020850Z 15007KT CAVOK 10/08 Q0990
EGPN - Dundee/Riverside, United Kingdom
Distance from station: ESE 137mi, 221km
Updated: 20/10/2021 08:50
Partly cloudy
Partly cloudy
 Wind from WSW
Wind: WSW 17 mph , 28 km/h
Temperature: 10°C
Wind Chill: 7°C
Dew Point: 9°C
Humidity: 94%
Barometer: 991 hPa
Clouds: Partly cloudy
Visibility: 6 miles , 10 km
Cloud details: Few Clouds 457 m
Partly cloudy 1402 m
2021/10/20 07:50 EGPN 200750Z 25015KT 9999 FEW015 SCT046 10/09 Q0991
 
EGPK - Prestwick(Civ/Na, United Kingdom
Distance from station: SSE 139mi, 224km
Updated: 20/10/2021 08:50
Partly cloudy
Partly cloudy
 Wind from W
Wind: W 16 mph , 26 km/h
Temperature: 11°C
Dew Point: 6°C
Humidity: 72%
Barometer: 994 hPa
Clouds: Partly cloudy
Visibility: 6 miles , 10 km
Cloud details: Few Clouds 762 m
Partly cloudy 1219 m
2021/10/20 07:50 EGPK 200750Z 26014KT 9999 FEW025 SCT040 11/06 Q0994
EGQL - Leuchars Raf, United Kingdom
Distance from station: ESE 145mi, 233km
Updated: 20/10/2021 08:50
Few Clouds
Few Clouds
 Wind from WSW
Wind: WSW 15 mph , 24 km/h
Temperature: 9°C
Wind Chill: 6°C
Dew Point: 7°C
Humidity: 87%
Barometer: 991 hPa
Clouds: Few Clouds
Visibility: 6 miles , 10 km
Cloud details: Few Clouds 1372 m
2021/10/20 07:50 EGQL 200750Z 25013KT 9999 FEW045 09/07 Q0991 RMK BLU
 
EGPH - Edinburgh Airpor, United Kingdom
Distance from station: SE 145mi, 234km
Updated: 20/10/2021 08:50
Few Clouds
Few Clouds
 Wind from WSW
Wind: WSW 10 mph , 17 km/h
Temperature: 9°C
Wind Chill: 7°C
Dew Point: 7°C
Humidity: 87%
Barometer: 992 hPa
Clouds: Few Clouds
Visibility: 6 miles , 10 km
Cloud details: Few Clouds 1128 m
2021/10/20 07:50 EGPH 200750Z 25009KT 9999 FEW037 09/07 Q0992
EGPC - Wick, United Kingdom
Distance from station: NE 146mi, 234km
Updated: 20/10/2021 08:50
Few Clouds
Few Clouds
 Wind from WSW
Wind: WSW 8 mph , 13 km/h
Temperature: 10°C
Wind Chill: 8°C
Dew Point: 7°C
Humidity: 82%
Barometer: 986 hPa
Clouds: Few Clouds
Visibility: 6 miles , 10 km
Cloud details: Few Clouds 366 m
2021/10/20 07:50 EGPC 200750Z 24007KT 9999 FEW012 10/07 Q0986

-

free counters
QR Code Twitter Scottish Weather Network UK Weather Network
Argyll House B & B

Argyll House B & B is situated in North West Skye and is the perfect base to see all that the Isle of Skye has to offer. Bookings are been taken for 2021 and 2022